createdAt,value
2018-01-12T00:01:31.376Z,98.45
2018-01-12T00:03:59.783Z,89.53
2018-01-12T00:06:27.397Z,110.70
2018-01-12T00:08:55.007Z,123.10
2018-01-12T00:11:22.655Z,124.40
2018-01-12T00:13:51.046Z,105.47
2018-01-12T00:16:19.472Z,123.93
2018-01-12T00:18:47.113Z,129.43
2018-01-12T00:21:14.754Z,127.68
2018-01-12T00:23:43.121Z,115.85
2018-01-12T00:26:11.536Z,114.65
2018-01-12T00:28:39.952Z,123.68
2018-01-12T00:31:07.536Z,112.22
2018-01-12T00:33:35.139Z,108.10
2018-01-12T00:36:03.539Z,118.57
2018-01-12T00:38:31.174Z,131.80
2018-01-12T00:40:58.826Z,120.82
2018-01-12T00:43:26.447Z,116.85
2018-01-12T00:45:54.083Z,107.95
2018-01-12T00:48:22.484Z,119.10
2018-01-12T00:50:50.890Z,120.22
2018-01-12T00:53:18.516Z,107.45
2018-01-12T00:55:46.896Z,117.05
2018-01-12T00:58:14.525Z,118.25
2018-01-12T01:00:42.147Z,120.30
2018-01-12T01:03:10.524Z,122.47
2018-01-12T01:05:38.157Z,89.85
2018-01-12T01:08:05.802Z,102.50
2018-01-12T01:10:33.394Z,106.40
2018-01-12T01:13:01.048Z,110.15
2018-01-12T01:15:28.653Z,123.60
2018-01-12T01:17:57.034Z,93.60
2018-01-12T01:20:25.393Z,86.20
2018-01-12T01:22:53.020Z,84.30
2018-01-12T01:25:20.643Z,102.20
2018-01-12T01:27:49.048Z,89.97
2018-01-12T01:30:17.449Z,80.35
2018-01-12T01:32:45.030Z,84.30
2018-01-12T01:35:12.667Z,89.35
2018-01-12T01:37:40.267Z,83.43
2018-01-12T01:40:07.899Z,74.28
2018-01-12T01:42:35.504Z,85.65
2018-01-12T01:45:03.117Z,75.43
2018-01-12T01:47:31.471Z,84.53
2018-01-12T01:49:59.071Z,74.40
2018-01-12T01:52:27.474Z,82.40
2018-01-12T01:54:55.072Z,78.60
2018-01-12T01:57:22.683Z,79.75
2018-01-12T01:59:51.040Z,75.93
2018-01-12T02:02:18.681Z,89.10
2018-01-12T02:04:46.276Z,90.28
2018-01-12T02:07:13.910Z,84.90
2018-01-12T02:09:41.490Z,105.70
2018-01-12T02:12:09.092Z,73.22
2018-01-12T02:14:36.732Z,76.07
2018-01-12T02:17:04.340Z,70.22
2018-01-12T02:19:32.324Z,100.70
2018-01-12T02:21:59.918Z,113.95
2018-01-12T02:24:27.514Z,93.20
2018-01-12T02:26:55.929Z,99.13
2018-01-12T02:29:23.581Z,112.65
2018-01-12T02:31:51.955Z,104.50
2018-01-12T02:34:20.341Z,108.72
2018-01-12T02:36:48.732Z,118.40
2018-01-12T02:39:17.106Z,114.62
2018-01-12T02:41:47.512Z,110.05
2018-01-12T02:44:15.137Z,103.97
2018-01-12T02:46:42.739Z,107.25
2018-01-12T02:49:10.353Z,106.40
2018-01-12T02:51:37.967Z,91.78
2018-01-12T02:54:05.594Z,90.10
2018-01-12T02:56:33.182Z,91.90
2018-01-12T02:59:00.767Z,88.75
2018-01-12T03:01:28.395Z,93.45
2018-01-12T03:03:57.032Z,87.45
2018-01-12T03:06:24.681Z,92.53
2018-01-12T03:08:52.284Z,91.95
2018-01-12T03:11:20.696Z,88.97
2018-01-12T03:13:48.304Z,89.80
2018-01-12T03:16:15.933Z,116.47
2018-01-12T03:18:43.554Z,124.03
2018-01-12T03:21:11.150Z,135.00
2018-01-12T03:23:39.534Z,156.60
2018-01-12T03:26:07.135Z,148.93
2018-01-12T03:28:34.743Z,136.10
2018-01-12T03:31:03.136Z,140.05
2018-01-12T03:33:30.751Z,151.10
2018-01-12T03:35:58.366Z,153.62
2018-01-12T03:38:25.972Z,149.23
2018-01-12T03:40:53.577Z,174.93
2018-01-12T03:43:21.210Z,146.87
2018-01-12T03:45:48.797Z,185.95
2018-01-12T03:48:16.431Z,168.77
2018-01-12T03:50:44.105Z,201.45
2018-01-12T03:53:11.732Z,173.23
2018-01-12T03:55:40.126Z,202.00
2018-01-12T03:58:07.757Z,193.40
2018-01-12T04:00:35.360Z,206.00
2018-01-12T04:03:03.748Z,144.00
2018-01-12T04:05:31.364Z,217.25
2018-01-12T04:07:58.971Z,178.70
2018-01-12T04:10:27.330Z,246.98
2018-01-12T04:12:54.959Z,242.55
2018-01-12T04:15:22.600Z,186.37
2018-01-12T04:17:50.224Z,158.68
2018-01-12T04:20:17.857Z,143.02
2018-01-12T04:22:45.472Z,90.32
2018-01-12T04:25:13.832Z,80.65
2018-01-12T04:27:42.419Z,86.75
2018-01-12T04:30:10.028Z,101.65
2018-01-12T04:32:37.687Z,75.05
2018-01-12T04:35:05.300Z,76.80
2018-01-12T04:37:33.743Z,82.65
2018-01-12T04:40:01.344Z,111.70
2018-01-12T04:42:28.966Z,96.82
2018-01-12T04:44:56.569Z,84.25
2018-01-12T04:47:24.190Z,77.20
2018-01-12T04:49:51.820Z,89.87
2018-01-12T04:52:19.397Z,83.85
2018-01-12T04:54:47.023Z,94.15
2018-01-12T04:57:21.037Z,83.03
2018-01-12T04:59:55.620Z,96.40
2018-01-12T05:02:23.990Z,81.72
2018-01-12T05:04:52.371Z,103.93
2018-01-12T05:07:20.777Z,116.80
2018-01-12T05:09:48.441Z,107.28
2018-01-12T05:12:16.832Z,83.30
2018-01-12T05:14:45.170Z,77.03
2018-01-12T05:17:14.357Z,77.00
2018-01-12T05:19:41.985Z,94.90
2018-01-12T05:22:09.682Z,88.35
2018-01-12T05:24:37.287Z,91.55
2018-01-12T05:27:04.901Z,97.30
2018-01-12T05:29:32.549Z,104.40
2018-01-12T05:32:00.955Z,113.80
2018-01-12T05:34:28.591Z,91.65
2018-01-12T05:36:56.200Z,74.40
2018-01-12T05:39:23.803Z,129.70
2018-01-12T05:41:51.432Z,89.10
2018-01-12T05:44:19.025Z,95.82
2018-01-12T05:46:46.646Z,113.57
2018-01-12T05:49:15.270Z,125.85
2018-01-12T05:51:42.959Z,94.32
2018-01-12T05:54:10.565Z,132.98
2018-01-12T05:56:38.202Z,127.12
2018-01-12T05:59:06.564Z,82.00
2018-01-12T06:01:46.100Z,123.62
2018-01-12T06:04:25.533Z,121.90
2018-01-12T06:06:53.145Z,125.00
2018-01-12T06:09:20.773Z,152.52
2018-01-12T06:11:48.381Z,132.25
2018-01-12T06:14:15.970Z,139.02
2018-01-12T06:16:43.612Z,156.95
2018-01-12T06:19:11.219Z,154.60
2018-01-12T06:21:38.835Z,119.40
2018-01-12T06:24:06.444Z,100.93
2018-01-12T06:26:34.050Z,126.07
2018-01-12T06:29:02.408Z,119.53
2018-01-12T06:31:30.046Z,111.30
2018-01-12T06:33:57.665Z,136.25
2018-01-12T06:36:26.063Z,124.75
2018-01-12T06:38:53.714Z,109.85
2018-01-12T06:41:22.105Z,146.43
2018-01-12T06:43:49.736Z,213.95
2018-01-12T06:46:17.696Z,154.95
2018-01-12T06:48:45.329Z,165.65
2018-01-12T06:51:12.959Z,172.05
2018-01-12T06:53:40.558Z,189.55
2018-01-12T06:56:08.162Z,186.77
2018-01-12T06:58:35.741Z,131.75
2018-01-12T07:01:03.389Z,136.20
2018-01-12T07:03:31.000Z,118.85
2018-01-12T07:05:59.351Z,129.90
2018-01-12T07:08:26.960Z,114.12
2018-01-12T07:10:55.319Z,116.22
2018-01-12T07:13:22.953Z,115.60
2018-01-12T07:15:50.551Z,106.50
2018-01-12T07:18:18.149Z,79.15
2018-01-12T07:20:57.745Z,80.00
2018-01-12T07:23:37.326Z,83.53
2018-01-12T07:26:04.951Z,84.87
2018-01-12T07:28:32.650Z,100.07
2018-01-12T07:31:00.998Z,98.22
2018-01-12T07:33:28.593Z,82.97
2018-01-12T07:35:58.242Z,101.28
2018-01-12T07:38:25.851Z,79.72
2018-01-12T07:40:53.493Z,78.85
2018-01-12T07:43:21.130Z,88.05
2018-01-12T07:45:48.785Z,78.30
2018-01-12T07:48:16.405Z,98.90
2018-01-12T07:50:44.004Z,80.57
2018-01-12T07:53:17.979Z,81.12
2018-01-12T07:55:45.566Z,66.78
2018-01-12T07:58:14.049Z,74.10
2018-01-12T08:00:47.983Z,76.68
2018-01-12T08:03:15.607Z,76.82
2018-01-12T08:05:43.204Z,87.30
2018-01-12T08:08:11.605Z,65.12
2018-01-12T08:10:39.255Z,65.82
2018-01-12T08:13:07.604Z,62.58
2018-01-12T08:15:36.206Z,51.05
2018-01-12T08:18:03.821Z,54.47
2018-01-12T08:20:31.413Z,65.18
2018-01-12T08:22:59.015Z,61.58
2018-01-12T08:25:27.416Z,45.20
2018-01-12T08:27:55.025Z,43.63
2018-01-12T08:30:22.612Z,38.42
2018-01-12T08:32:50.280Z,42.53
2018-01-12T08:35:17.919Z,37.97
2018-01-12T08:37:45.563Z,35.75
2018-01-12T08:40:13.154Z,36.30
2018-01-12T08:42:40.784Z,31.37
2018-01-12T08:45:08.399Z,27.83
2018-01-12T08:47:35.994Z,27.15
2018-01-12T08:50:04.417Z,31.42
2018-01-12T08:52:33.376Z,37.60
2018-01-12T08:55:01.621Z,34.40
2018-01-12T08:57:29.282Z,35.33
2018-01-12T08:59:56.885Z,31.70
2018-01-12T09:02:25.259Z,33.72
2018-01-12T09:04:53.636Z,34.75
2018-01-12T09:07:21.243Z,27.60
2018-01-12T09:09:48.878Z,26.98
2018-01-12T09:12:17.271Z,28.38
2018-01-12T09:14:50.704Z,27.17
2018-01-12T09:17:30.290Z,32.15
2018-01-12T09:20:09.695Z,31.40
2018-01-12T09:22:46.233Z,21.42
2018-01-12T09:25:23.676Z,26.05
2018-01-12T09:27:51.266Z,21.90
2018-01-12T09:30:19.686Z,23.17
2018-01-12T09:32:50.140Z,24.77
2018-01-12T09:35:17.785Z,25.70
2018-01-12T09:37:45.447Z,31.17
2018-01-12T09:40:40.803Z,20.37
2018-01-12T09:43:09.182Z,31.23
2018-01-12T09:45:37.560Z,24.55
2018-01-12T09:48:17.165Z,23.45
2018-01-12T09:50:44.801Z,21.40
2018-01-12T09:53:12.454Z,25.85
2018-01-12T09:55:40.891Z,22.42
2018-01-12T09:58:08.510Z,22.15
2018-01-12T10:00:42.627Z,22.77
2018-01-12T10:03:10.231Z,19.70
2018-01-12T10:05:37.828Z,17.40
2018-01-12T10:08:05.510Z,21.98
2018-01-12T10:10:33.948Z,16.83
2018-01-12T10:13:01.591Z,18.42
2018-01-12T10:15:29.228Z,18.33
2018-01-12T10:17:59.356Z,17.12
2018-01-12T10:20:37.816Z,18.25
2018-01-12T10:23:05.428Z,20.50
2018-01-12T10:25:33.055Z,18.15
2018-01-12T10:28:00.650Z,18.65
2018-01-12T10:30:58.455Z,21.08
2018-01-12T10:33:48.774Z,20.62
2018-01-12T10:36:21.128Z,17.00
2018-01-12T10:39:03.672Z,18.37
2018-01-12T10:41:37.216Z,19.62
2018-01-12T10:44:04.834Z,21.60
2018-01-12T10:46:44.208Z,23.35
2018-01-12T10:49:37.617Z,19.87
2018-01-12T10:52:06.176Z,24.48
2018-01-12T10:54:33.834Z,23.55
2018-01-12T10:57:01.449Z,23.75
2018-01-12T10:59:29.835Z,24.45
2018-01-12T11:01:57.499Z,24.25
2018-01-12T11:04:25.884Z,19.67
2018-01-12T11:06:54.271Z,22.80
2018-01-12T11:09:22.672Z,18.80
2018-01-12T11:11:51.381Z,22.02
2018-01-12T11:14:21.646Z,17.77
2018-01-12T11:16:50.137Z,18.10
2018-01-12T11:19:18.952Z,16.58
2018-01-12T11:21:46.748Z,20.25
2018-01-12T11:24:14.395Z,17.20
2018-01-12T11:26:42.776Z,19.30
2018-01-12T11:29:11.153Z,19.17
2018-01-12T11:31:39.549Z,21.58
2018-01-12T11:34:07.949Z,18.98
2018-01-12T11:36:35.550Z,20.77
2018-01-12T11:39:03.205Z,19.55
2018-01-12T11:41:31.615Z,18.00
2018-01-12T11:43:59.227Z,14.43
2018-01-12T11:46:26.835Z,16.98
2018-01-12T11:48:54.449Z,19.70
2018-01-12T11:51:22.085Z,22.95
2018-01-12T11:53:49.680Z,22.42
2018-01-12T11:56:17.313Z,17.65
2018-01-12T11:58:44.924Z,22.80
2018-01-12T12:01:13.315Z,30.52
2018-01-12T12:03:40.937Z,24.60
2018-01-12T12:06:08.602Z,20.58
2018-01-12T12:08:36.348Z,22.35
2018-01-12T12:11:03.985Z,23.75
2018-01-12T12:13:31.624Z,18.02
2018-01-12T12:16:00.036Z,20.12
2018-01-12T12:18:27.645Z,18.20
2018-01-12T12:20:55.250Z,21.45
2018-01-12T12:23:25.516Z,18.70
2018-01-12T12:25:54.448Z,20.35
2018-01-12T12:28:22.856Z,26.17
2018-01-12T12:30:53.195Z,21.33
2018-01-12T12:33:20.949Z,23.30
2018-01-12T12:35:49.295Z,24.63
2018-01-12T12:38:16.925Z,25.85
2018-01-12T12:40:44.559Z,20.42
2018-01-12T12:43:12.970Z,26.35
2018-01-12T12:45:40.603Z,22.90
2018-01-12T12:48:09.018Z,24.45
2018-01-12T12:50:36.640Z,20.83
2018-01-12T12:53:04.996Z,18.30
2018-01-12T12:55:32.680Z,21.65
2018-01-12T12:58:00.268Z,23.10
2018-01-12T13:00:28.660Z,16.45
2018-01-12T13:02:57.026Z,19.25
2018-01-12T13:05:26.115Z,27.55
2018-01-12T13:07:53.782Z,19.75
2018-01-12T13:10:21.379Z,18.58
2018-01-12T13:12:49.033Z,20.90
2018-01-12T13:15:16.748Z,17.73
2018-01-12T13:17:44.361Z,18.33
2018-01-12T13:20:12.776Z,17.77
2018-01-12T13:22:40.453Z,19.80
2018-01-12T13:25:08.057Z,15.20
2018-01-12T13:27:38.748Z,21.00
2018-01-12T13:30:06.518Z,19.80
2018-01-12T13:32:34.140Z,21.58
2018-01-12T13:35:01.775Z,20.83
2018-01-12T13:37:29.394Z,19.27
2018-01-12T13:39:57.174Z,22.23
2018-01-12T13:42:24.749Z,19.98
2018-01-12T13:44:52.395Z,27.00
2018-01-12T13:47:20.760Z,22.30
2018-01-12T13:49:48.423Z,21.25
2018-01-12T13:52:16.046Z,20.73
2018-01-12T13:54:51.005Z,24.92
2018-01-12T13:57:18.704Z,22.23
2018-01-12T13:59:46.340Z,18.20
2018-01-12T14:02:13.929Z,22.83
2018-01-12T14:04:41.563Z,21.80
2018-01-12T14:07:09.196Z,21.27
2018-01-12T14:09:36.817Z,20.35
2018-01-12T14:12:04.505Z,22.55
2018-01-12T14:14:32.866Z,18.62
2018-01-12T14:17:00.461Z,23.80
2018-01-12T14:19:28.837Z,23.60
2018-01-12T14:21:57.203Z,20.05
2018-01-12T14:24:25.987Z,25.60
2018-01-12T14:26:53.754Z,19.08
2018-01-12T14:29:21.402Z,22.35
2018-01-12T14:31:49.118Z,20.08
2018-01-12T14:34:16.852Z,20.90
2018-01-12T14:36:44.707Z,29.45
2018-01-12T14:39:14.283Z,25.33
2018-01-12T14:41:43.830Z,17.75
2018-01-12T14:44:14.511Z,24.87
2018-01-12T14:46:45.149Z,21.33
2018-01-12T14:49:15.015Z,22.00
2018-01-12T14:51:45.788Z,21.80
2018-01-12T14:54:21.503Z,16.40
2018-01-12T14:56:49.681Z,19.92
2018-01-12T14:59:18.129Z,18.42
2018-01-12T15:01:45.741Z,24.70
2018-01-12T15:04:13.838Z,20.88
2018-01-12T15:06:41.464Z,18.55
2018-01-12T15:09:09.310Z,26.30
2018-01-12T15:11:37.034Z,20.85
2018-01-12T15:14:05.488Z,19.33
2018-01-12T15:16:33.382Z,21.77
2018-01-12T15:19:05.481Z,20.58
2018-01-12T15:21:34.438Z,22.87
2018-01-12T15:24:02.254Z,22.27
2018-01-12T15:26:30.126Z,17.42
2018-01-12T15:28:58.697Z,21.02
2018-01-12T15:31:27.287Z,17.90
2018-01-12T15:33:55.862Z,21.87
2018-01-12T15:36:23.694Z,20.77
2018-01-12T15:38:52.250Z,18.37
2018-01-12T15:41:19.886Z,17.95
2018-01-12T15:43:47.684Z,25.35
2018-01-12T15:46:15.436Z,23.10
2018-01-12T15:48:43.238Z,39.40
2018-01-12T15:51:11.009Z,24.48
2018-01-12T15:53:38.740Z,19.23
2018-01-12T15:56:06.536Z,27.50
2018-01-12T15:58:39.041Z,21.52
2018-01-12T16:01:08.488Z,26.02
2018-01-12T16:03:36.841Z,23.08
2018-01-12T16:06:04.822Z,24.08
2018-01-12T16:08:32.515Z,22.95
2018-01-12T16:11:00.112Z,23.23
2018-01-12T16:13:28.491Z,26.02
2018-01-12T16:15:56.893Z,27.90
2018-01-12T16:18:24.696Z,23.50
2018-01-12T16:20:53.392Z,18.77
2018-01-12T16:23:22.659Z,22.67
2018-01-12T16:25:50.614Z,27.05
2018-01-12T16:28:19.730Z,27.95
2018-01-12T16:30:47.744Z,27.13
2018-01-12T16:33:15.653Z,27.45
2018-01-12T16:35:44.277Z,27.60
2018-01-12T16:38:11.913Z,35.05
2018-01-12T16:40:40.289Z,38.85
2018-01-12T16:43:08.717Z,36.85
2018-01-12T16:45:36.397Z,35.88
2018-01-12T16:48:05.076Z,39.10
2018-01-12T16:50:32.681Z,40.47
2018-01-12T16:53:00.418Z,44.67
2018-01-12T16:55:28.209Z,40.80
2018-01-12T16:57:55.876Z,39.42
2018-01-12T17:00:23.498Z,41.88
2018-01-12T17:02:51.136Z,44.08
2018-01-12T17:05:18.726Z,46.10
2018-01-12T17:07:46.519Z,44.03
2018-01-12T17:10:16.387Z,45.33
2018-01-12T17:12:44.784Z,52.55
2018-01-12T17:15:13.308Z,56.65
2018-01-12T17:17:41.137Z,50.30
2018-01-12T17:20:08.791Z,43.83
2018-01-12T17:22:36.411Z,46.08
2018-01-12T17:25:04.445Z,48.87
2018-01-12T17:27:32.355Z,53.30
2018-01-12T17:30:00.197Z,51.05
2018-01-12T17:32:28.824Z,42.72
2018-01-12T17:34:56.618Z,47.95
2018-01-12T17:37:24.436Z,52.17
2018-01-12T17:39:52.177Z,47.53
2018-01-12T17:42:20.261Z,55.00
2018-01-12T17:44:48.291Z,54.85
2018-01-12T17:47:16.204Z,49.70
2018-01-12T17:49:46.100Z,54.70
2018-01-12T17:52:14.493Z,55.50
2018-01-12T17:54:43.201Z,55.17
2018-01-12T17:57:10.896Z,51.83
2018-01-12T17:59:38.772Z,49.63
2018-01-12T18:02:07.720Z,53.05
2018-01-12T18:04:35.613Z,53.40
2018-01-12T18:07:03.344Z,56.37
2018-01-12T18:09:31.180Z,57.78
2018-01-12T18:11:58.896Z,57.08
2018-01-12T18:14:27.306Z,53.05
2018-01-12T18:16:55.899Z,45.42
2018-01-12T18:19:23.519Z,49.92
2018-01-12T18:21:51.317Z,51.85
2018-01-12T18:24:19.900Z,47.00
2018-01-12T18:26:48.100Z,56.63
2018-01-12T18:29:16.555Z,26.02
2018-01-12T18:31:44.201Z,31.27
2018-01-12T18:34:11.805Z,29.98
2018-01-12T18:36:40.684Z,28.48
2018-01-12T18:39:09.373Z,33.22
2018-01-12T18:41:37.950Z,35.05
2018-01-12T18:44:05.776Z,30.27
2018-01-12T18:46:34.116Z,24.73
2018-01-12T18:49:04.259Z,31.95
2018-01-12T18:51:33.162Z,32.97
2018-01-12T18:54:00.808Z,30.10
2018-01-12T18:56:30.852Z,28.80
2018-01-12T18:58:58.511Z,28.73
2018-01-12T19:01:27.929Z,31.83
2018-01-12T19:03:55.547Z,26.98
2018-01-12T19:06:23.463Z,27.37
2018-01-12T19:08:51.694Z,29.15
2018-01-12T19:11:19.384Z,26.15
2018-01-12T19:13:47.808Z,26.27
2018-01-12T19:16:15.431Z,18.23
2018-01-12T19:18:43.070Z,34.17
2018-01-12T19:21:10.671Z,33.33
2018-01-12T19:23:38.280Z,31.45
2018-01-12T19:26:06.252Z,27.95
2018-01-12T19:28:33.900Z,24.75
2018-01-12T19:31:01.539Z,32.90
2018-01-12T19:33:29.917Z,30.30
2018-01-12T19:35:57.541Z,35.38
2018-01-12T19:38:25.204Z,27.30
2018-01-12T19:40:52.857Z,28.98
2018-01-12T19:43:21.598Z,27.95
2018-01-12T19:45:49.890Z,27.25
2018-01-12T19:48:18.052Z,31.52
2018-01-12T19:50:47.645Z,33.30
2018-01-12T19:53:15.510Z,27.35
2018-01-12T19:55:43.364Z,33.40
2018-01-12T19:58:11.734Z,29.95
2018-01-12T20:00:40.499Z,27.45
2018-01-12T20:03:08.363Z,33.10
2018-01-12T20:05:36.866Z,26.67
2018-01-12T20:08:05.330Z,31.10
2018-01-12T20:10:32.950Z,30.77
2018-01-12T20:13:00.983Z,40.17
2018-01-12T20:15:28.821Z,26.12
2018-01-12T20:17:56.688Z,25.45
2018-01-12T20:20:26.028Z,28.42
2018-01-12T20:22:53.781Z,35.25
2018-01-12T20:25:21.425Z,25.42
2018-01-12T20:27:49.101Z,28.48
2018-01-12T20:30:16.702Z,32.63
2018-01-12T20:32:44.607Z,34.13
2018-01-12T20:35:12.887Z,29.50
2018-01-12T20:37:41.527Z,33.20
2018-01-12T20:40:11.141Z,26.17
2018-01-12T20:42:39.067Z,26.27
2018-01-12T20:45:06.905Z,31.17
2018-01-12T20:47:36.446Z,30.55
2018-01-12T20:50:04.196Z,89.47
2018-01-12T20:52:32.890Z,33.30
2018-01-12T20:55:00.687Z,37.42
2018-01-12T20:57:29.097Z,33.08
2018-01-12T20:59:58.445Z,29.42
2018-01-12T21:02:26.233Z,33.20
2018-01-12T21:04:54.239Z,37.10
2018-01-12T21:07:23.088Z,40.17
2018-01-12T21:09:50.822Z,42.40
2018-01-12T21:12:18.684Z,40.65
2018-01-12T21:14:46.688Z,38.38
2018-01-12T21:17:15.243Z,39.55
2018-01-12T21:19:44.844Z,41.13
2018-01-12T21:22:12.759Z,38.22
2018-01-12T21:24:40.674Z,36.47
2018-01-12T21:27:10.584Z,35.17
2018-01-12T21:29:39.995Z,31.45
2018-01-12T21:32:08.303Z,26.75
2018-01-12T21:34:38.341Z,27.98
2018-01-12T21:37:06.115Z,28.45
2018-01-12T21:39:34.013Z,21.58
2018-01-12T21:42:01.682Z,32.70
2018-01-12T21:44:30.097Z,26.52
2018-01-12T21:46:57.758Z,26.12
2018-01-12T21:49:25.523Z,30.77
2018-01-12T21:51:53.208Z,20.48
2018-01-12T21:54:21.725Z,23.85
2018-01-12T21:56:49.406Z,21.30
2018-01-12T21:59:17.365Z,25.10
2018-01-12T22:01:45.499Z,26.52
2018-01-12T22:04:13.230Z,24.30
2018-01-12T22:06:41.686Z,23.25
2018-01-12T22:09:09.633Z,22.55
2018-01-12T22:11:38.320Z,32.13
2018-01-12T22:14:07.207Z,32.60
2018-01-12T22:16:34.859Z,29.50
2018-01-12T22:19:03.268Z,27.48
2018-01-12T22:21:30.921Z,27.02
2018-01-12T22:24:01.890Z,31.55
2018-01-12T22:26:29.714Z,27.85
2018-01-12T22:28:57.317Z,28.00
2018-01-12T22:31:25.163Z,29.35
2018-01-12T22:33:53.540Z,26.75
2018-01-12T22:36:21.903Z,30.55
2018-01-12T22:38:49.550Z,33.17
2018-01-12T22:41:17.162Z,27.98
2018-01-12T22:43:45.679Z,29.52
2018-01-12T22:46:13.334Z,29.25
2018-01-12T22:48:41.173Z,33.60
2018-01-12T22:51:08.884Z,23.98
2018-01-12T22:53:36.516Z,28.60
2018-01-12T22:56:04.908Z,30.20
2018-01-12T22:58:42.993Z,32.30
2018-01-12T23:01:10.709Z,35.78
2018-01-12T23:03:38.648Z,30.42
2018-01-12T23:06:06.383Z,24.87
2018-01-12T23:08:34.741Z,26.05
2018-01-12T23:11:02.460Z,28.85
2018-01-12T23:13:30.834Z,29.40
2018-01-12T23:15:59.214Z,33.17
2018-01-12T23:18:26.900Z,28.08
2018-01-12T23:20:55.311Z,27.37
2018-01-12T23:23:24.002Z,33.47
2018-01-12T23:25:51.763Z,34.05
2018-01-12T23:28:19.442Z,24.37
2018-01-12T23:30:47.129Z,26.80
2018-01-12T23:33:15.729Z,19.30
2018-01-12T23:35:43.438Z,20.15
2018-01-12T23:38:11.827Z,22.52
2018-01-12T23:40:40.339Z,22.90
2018-01-12T23:43:08.022Z,18.83
2018-01-12T23:45:35.791Z,29.58
2018-01-12T23:48:03.427Z,26.95
2018-01-12T23:50:31.052Z,29.60
2018-01-12T23:52:58.768Z,26.12
2018-01-12T23:55:26.470Z,28.35
2018-01-12T23:57:54.090Z,28.90
